createdAt,value
2018-05-02T00:02:26.257Z,12.94
2018-05-02T00:04:53.856Z,12.90
2018-05-02T00:07:21.531Z,12.90
2018-05-02T00:09:49.281Z,12.95
2018-05-02T00:12:16.883Z,12.94
2018-05-02T00:14:44.547Z,12.90
2018-05-02T00:17:12.279Z,12.86
2018-05-02T00:19:40.444Z,12.80
2018-05-02T00:22:08.037Z,12.82
2018-05-02T00:24:35.948Z,12.84
2018-05-02T00:27:03.624Z,12.87
2018-05-02T00:29:31.255Z,12.87
2018-05-02T00:31:58.934Z,12.90
2018-05-02T00:34:26.521Z,12.89
2018-05-02T00:36:54.176Z,12.84
2018-05-02T00:39:21.832Z,12.76
2018-05-02T00:41:49.411Z,12.72
2018-05-02T00:44:17.000Z,12.72
2018-05-02T00:46:44.623Z,12.74
2018-05-02T00:49:17.064Z,12.75
2018-05-02T00:51:44.860Z,12.70
2018-05-02T00:54:12.525Z,12.67
2018-05-02T00:56:40.183Z,12.66
2018-05-02T00:59:07.928Z,12.59
2018-05-02T01:01:35.573Z,12.49
2018-05-02T01:04:03.295Z,12.36
2018-05-02T01:06:31.075Z,12.29
2018-05-02T01:08:58.724Z,12.28
2018-05-02T01:11:27.292Z,12.31
2018-05-02T01:13:54.957Z,12.31
2018-05-02T01:16:22.618Z,12.28
2018-05-02T01:18:50.277Z,12.18
2018-05-02T01:21:18.028Z,12.03
2018-05-02T01:23:45.610Z,11.87
2018-05-02T01:26:13.311Z,11.77
2018-05-02T01:28:41.098Z,11.70
2018-05-02T01:31:08.684Z,11.61
2018-05-02T01:33:36.283Z,11.60
2018-05-02T01:36:03.951Z,11.56
2018-05-02T01:38:31.528Z,11.54
2018-05-02T01:40:59.192Z,11.54
2018-05-02T01:43:26.988Z,11.57
2018-05-02T01:45:54.577Z,11.58
2018-05-02T01:48:22.210Z,11.63
2018-05-02T01:50:50.008Z,11.67
2018-05-02T01:53:17.676Z,11.68
2018-05-02T01:55:45.336Z,11.66
2018-05-02T01:58:13.000Z,11.68
2018-05-02T02:00:40.576Z,11.65
2018-05-02T02:03:08.171Z,11.63
2018-05-02T02:05:35.909Z,11.64
2018-05-02T02:08:03.511Z,11.59
2018-05-02T02:10:31.101Z,11.54
2018-05-02T02:12:58.773Z,11.49
2018-05-02T02:15:26.480Z,11.42
2018-05-02T02:17:54.135Z,11.40
2018-05-02T02:20:21.897Z,11.40
2018-05-02T02:22:49.576Z,11.40
2018-05-02T02:25:17.167Z,11.44
2018-05-02T02:27:44.964Z,11.49
2018-05-02T02:30:12.608Z,11.49
2018-05-02T02:32:40.198Z,11.45
2018-05-02T02:35:07.829Z,11.47
2018-05-02T02:37:35.584Z,11.49
2018-05-02T02:40:03.200Z,11.50
2018-05-02T02:42:30.985Z,11.50
2018-05-02T02:44:58.564Z,11.53
2018-05-02T02:47:26.158Z,11.55
2018-05-02T02:49:54.812Z,11.59
2018-05-02T02:52:22.445Z,11.61
2018-05-02T02:54:50.068Z,11.67
2018-05-02T02:57:17.788Z,11.73
2018-05-02T02:59:45.384Z,11.83
2018-05-02T03:02:13.024Z,11.87
2018-05-02T03:04:40.659Z,11.87
2018-05-02T03:07:08.314Z,11.89
2018-05-02T03:09:36.046Z,11.93
2018-05-02T03:12:03.895Z,11.96
2018-05-02T03:14:31.699Z,11.93
2018-05-02T03:16:59.286Z,11.86
2018-05-02T03:19:27.072Z,11.78
2018-05-02T03:21:54.644Z,11.66
2018-05-02T03:24:22.286Z,11.60
2018-05-02T03:26:50.022Z,11.59
2018-05-02T03:29:18.338Z,11.59
2018-05-02T03:31:45.978Z,11.63
2018-05-02T03:34:13.608Z,11.62
2018-05-02T03:36:41.249Z,11.60
2018-05-02T03:39:08.932Z,11.60
2018-05-02T03:41:36.712Z,11.64
2018-05-02T03:44:04.992Z,11.65
2018-05-02T03:46:32.674Z,11.68
2018-05-02T03:49:00.323Z,11.68
2018-05-02T03:51:27.896Z,11.71
2018-05-02T03:53:56.348Z,11.76
2018-05-02T03:56:24.033Z,11.82
2018-05-02T03:58:51.663Z,11.88
2018-05-02T04:01:30.976Z,11.96
2018-05-02T04:04:10.385Z,12.01
2018-05-02T04:07:15.451Z,12.01
2018-05-02T04:09:43.114Z,12.08
2018-05-02T04:12:10.788Z,12.19
2018-05-02T04:14:39.189Z,12.31
2018-05-02T04:17:06.797Z,12.39
2018-05-02T04:19:34.384Z,12.47
2018-05-02T04:22:02.103Z,12.54
2018-05-02T04:24:29.696Z,12.65
2018-05-02T04:26:57.297Z,12.77
2018-05-02T04:29:25.298Z,12.86
2018-05-02T04:31:52.961Z,12.91
2018-05-02T04:34:20.601Z,13.01
2018-05-02T04:36:48.295Z,13.07
2018-05-02T04:39:15.931Z,13.11
2018-05-02T04:41:43.539Z,13.17
2018-05-02T04:44:11.188Z,13.21
2018-05-02T04:46:38.795Z,13.25
2018-05-02T04:49:06.480Z,13.29
2018-05-02T04:51:34.147Z,13.33
2018-05-02T04:54:01.785Z,13.39
2018-05-02T04:56:31.091Z,13.43
2018-05-02T04:58:58.711Z,13.45
2018-05-02T05:01:26.321Z,13.46
2018-05-02T05:03:54.742Z,13.50
2018-05-02T05:06:22.489Z,13.52
2018-05-02T05:08:50.069Z,13.49
2018-05-02T05:11:17.677Z,13.50
2018-05-02T05:13:45.411Z,13.56
2018-05-02T05:16:13.058Z,13.63
2018-05-02T05:18:40.685Z,13.68
2018-05-02T05:21:08.314Z,13.75
2018-05-02T05:23:35.892Z,13.82
2018-05-02T05:26:03.496Z,13.72
2018-05-02T05:28:31.281Z,13.58
2018-05-02T05:30:59.148Z,13.42
2018-05-02T05:33:31.370Z,13.41
2018-05-02T05:35:59.482Z,13.34
2018-05-02T05:38:27.131Z,13.34
2018-05-02T05:40:54.793Z,13.39
2018-05-02T05:43:22.562Z,13.42
2018-05-02T05:45:50.202Z,13.48
2018-05-02T05:48:17.777Z,13.51
2018-05-02T05:50:45.409Z,13.57
2018-05-02T05:53:12.987Z,13.67
2018-05-02T05:55:40.571Z,13.78
2018-05-02T05:58:08.323Z,13.84
2018-05-02T06:00:35.935Z,13.87
2018-05-02T06:03:03.551Z,13.89
2018-05-02T06:05:31.256Z,14.03
2018-05-02T06:07:58.861Z,14.15
2018-05-02T06:10:26.512Z,14.21
2018-05-02T06:12:54.311Z,14.29
2018-05-02T06:15:21.920Z,14.37
2018-05-02T06:17:50.509Z,14.36
2018-05-02T06:20:18.137Z,14.22
2018-05-02T06:22:45.790Z,14.16
2018-05-02T06:25:13.472Z,14.20
2018-05-02T06:27:41.216Z,14.27
2018-05-02T06:30:08.831Z,14.29
2018-05-02T06:32:36.616Z,14.38
2018-05-02T06:35:04.324Z,14.48
2018-05-02T06:37:32.536Z,14.68
2018-05-02T06:40:00.357Z,14.87
2018-05-02T06:42:28.101Z,14.99
2018-05-02T06:44:55.722Z,15.20
2018-05-02T06:47:23.800Z,15.35
2018-05-02T06:49:51.448Z,15.30
2018-05-02T06:52:19.073Z,15.44
2018-05-02T06:54:46.761Z,15.56
2018-05-02T06:57:14.431Z,15.65
2018-05-02T06:59:42.025Z,15.65
2018-05-02T07:02:09.618Z,15.88
2018-05-02T07:04:37.356Z,16.03
2018-05-02T07:07:05.024Z,16.42
2018-05-02T07:09:32.617Z,16.64
2018-05-02T07:12:00.333Z,16.69
2018-05-02T07:14:27.929Z,16.54
2018-05-02T07:16:55.595Z,16.68
2018-05-02T07:19:23.245Z,16.94
2018-05-02T07:21:50.895Z,17.17
2018-05-02T07:24:18.493Z,17.32
2018-05-02T07:26:46.192Z,17.46
2018-05-02T07:29:13.776Z,17.26
2018-05-02T07:31:43.014Z,17.22
2018-05-02T07:34:10.820Z,17.31
2018-05-02T07:36:38.429Z,17.59
2018-05-02T07:39:06.100Z,17.95
2018-05-02T07:41:34.654Z,18.10
2018-05-02T07:44:02.268Z,18.37
2018-05-02T07:46:29.862Z,18.49
2018-05-02T07:49:10.758Z,18.94
2018-05-02T07:51:38.665Z,19.06
2018-05-02T07:54:06.367Z,19.12
2018-05-02T07:56:34.005Z,18.98
2018-05-02T07:59:01.585Z,18.80
2018-05-02T08:01:29.325Z,18.63
2018-05-02T08:03:56.952Z,18.81
2018-05-02T08:06:24.536Z,18.83
2018-05-02T08:08:52.250Z,19.02
2018-05-02T08:11:19.901Z,18.97
2018-05-02T08:13:47.492Z,18.85
2018-05-02T08:16:15.145Z,19.14
2018-05-02T08:18:42.802Z,19.42
2018-05-02T08:21:10.409Z,19.59
2018-05-02T08:23:38.150Z,19.64
2018-05-02T08:26:05.762Z,18.97
2018-05-02T08:28:33.345Z,18.76
2018-05-02T08:31:01.080Z,19.12
2018-05-02T08:33:28.669Z,19.21
2018-05-02T08:35:56.353Z,19.28
2018-05-02T08:38:24.073Z,19.65
2018-05-02T08:40:51.700Z,19.60
2018-05-02T08:43:19.293Z,19.92
2018-05-02T08:45:46.945Z,20.10
2018-05-02T08:48:15.304Z,19.80
2018-05-02T08:50:42.948Z,20.17
2018-05-02T08:53:10.660Z,20.47
2018-05-02T08:55:38.325Z,20.50
2018-05-02T08:58:05.956Z,20.76
2018-05-02T09:00:33.697Z,21.15
2018-05-02T09:03:01.275Z,21.63
2018-05-02T09:05:28.875Z,21.96
2018-05-02T09:07:57.259Z,22.00
2018-05-02T09:10:24.898Z,21.76
2018-05-02T09:12:52.497Z,21.68
2018-05-02T09:15:20.157Z,21.62
2018-05-02T09:17:47.746Z,21.82
2018-05-02T09:20:15.351Z,21.90
2018-05-02T09:22:43.061Z,21.70
2018-05-02T09:25:10.724Z,21.98
2018-05-02T09:27:38.320Z,22.18
2018-05-02T09:30:05.985Z,22.27
2018-05-02T09:32:33.564Z,22.15
2018-05-02T09:35:01.168Z,22.45
2018-05-02T09:37:28.867Z,22.26
2018-05-02T09:39:56.532Z,22.57
2018-05-02T09:42:24.108Z,22.72
2018-05-02T09:44:51.919Z,22.74
2018-05-02T09:47:19.487Z,22.75
2018-05-02T09:49:47.141Z,23.00
2018-05-02T09:52:14.803Z,23.35
2018-05-02T09:54:42.389Z,23.48
2018-05-02T09:57:09.979Z,23.52
2018-05-02T09:59:37.766Z,23.69
2018-05-02T10:02:05.391Z,23.77
2018-05-02T10:04:33.059Z,23.83
2018-05-02T10:07:00.820Z,23.85
2018-05-02T10:09:28.469Z,24.27
2018-05-02T10:11:56.144Z,23.96
2018-05-02T10:14:23.795Z,24.04
2018-05-02T10:16:51.446Z,24.14
2018-05-02T10:19:19.058Z,24.18
2018-05-02T10:21:46.725Z,24.30
2018-05-02T10:24:14.309Z,24.35
2018-05-02T10:26:41.885Z,24.22
2018-05-02T10:29:09.664Z,24.47
2018-05-02T10:31:37.316Z,24.67
2018-05-02T10:34:04.998Z,24.99
2018-05-02T10:36:32.672Z,25.19
2018-05-02T10:39:00.924Z,25.37
2018-05-02T10:41:28.512Z,25.59
2018-05-02T10:43:56.212Z,25.60
2018-05-02T10:46:23.823Z,25.64
2018-05-02T10:48:51.467Z,25.19
2018-05-02T10:51:19.132Z,25.35
2018-05-02T10:53:46.788Z,25.56
2018-05-02T10:56:14.385Z,25.58
2018-05-02T10:58:42.108Z,25.60
2018-05-02T11:01:09.697Z,25.50
2018-05-02T11:03:37.283Z,25.38
2018-05-02T11:06:05.072Z,24.88
2018-05-02T11:08:32.775Z,24.99
2018-05-02T11:11:00.367Z,25.26
2018-05-02T11:13:28.028Z,25.71
2018-05-02T11:15:55.727Z,26.14
2018-05-02T11:18:23.323Z,26.33
2018-05-02T11:20:50.985Z,26.55
2018-05-02T11:23:18.603Z,26.73
2018-05-02T11:25:46.193Z,26.64
2018-05-02T11:28:14.846Z,26.24
2018-05-02T11:30:42.444Z,26.05
2018-05-02T11:33:10.034Z,26.01
2018-05-02T11:35:37.766Z,25.69
2018-05-02T11:38:05.359Z,25.80
2018-05-02T11:40:33.179Z,25.93
2018-05-02T11:43:00.775Z,26.04
2018-05-02T11:45:28.412Z,25.82
2018-05-02T11:47:56.024Z,26.05
2018-05-02T11:50:24.349Z,26.26
2018-05-02T11:52:51.952Z,26.45
2018-05-02T11:55:19.545Z,26.62
2018-05-02T11:57:47.264Z,26.44
2018-05-02T12:00:14.895Z,26.36
2018-05-02T12:02:42.614Z,26.56
2018-05-02T12:05:10.275Z,26.76
2018-05-02T12:07:37.905Z,26.86
2018-05-02T12:10:05.574Z,27.00
2018-05-02T12:12:33.273Z,26.94
2018-05-02T12:15:00.880Z,26.80
2018-05-02T12:17:28.473Z,26.84
2018-05-02T12:19:56.144Z,27.17
2018-05-02T12:22:23.723Z,27.33
2018-05-02T12:24:51.377Z,27.47
2018-05-02T12:27:19.013Z,27.55
2018-05-02T12:29:46.677Z,26.94
2018-05-02T12:32:14.255Z,26.90
2018-05-02T12:34:41.939Z,26.97
2018-05-02T12:37:09.531Z,27.00
2018-05-02T12:39:37.133Z,27.20
2018-05-02T12:42:05.008Z,27.22
2018-05-02T12:44:32.668Z,27.06
2018-05-02T12:47:00.832Z,26.93
2018-05-02T12:49:28.500Z,26.49
2018-05-02T12:51:56.166Z,26.33
2018-05-02T12:54:23.739Z,25.95
2018-05-02T12:56:51.373Z,26.07
2018-05-02T12:59:19.020Z,26.01
2018-05-02T13:01:46.596Z,25.87
2018-05-02T13:04:14.507Z,25.83
2018-05-02T13:06:42.164Z,25.56
2018-05-02T13:09:09.773Z,25.31
2018-05-02T13:11:37.384Z,25.38
2018-05-02T13:14:04.981Z,25.24
2018-05-02T13:16:32.567Z,25.23
2018-05-02T13:19:00.187Z,25.33
2018-05-02T13:21:27.850Z,25.39
2018-05-02T13:23:55.654Z,25.30
2018-05-02T13:26:23.280Z,25.26
2018-05-02T13:28:50.935Z,25.36
2018-05-02T13:31:18.571Z,25.37
2018-05-02T13:33:46.280Z,25.32
2018-05-02T13:36:13.925Z,25.26
2018-05-02T13:38:41.510Z,25.16
2018-05-02T13:41:09.212Z,25.15
2018-05-02T13:43:37.023Z,25.14
2018-05-02T13:46:04.685Z,25.06
2018-05-02T13:48:32.611Z,24.94
2018-05-02T13:51:00.265Z,24.93
2018-05-02T13:53:27.844Z,24.72
2018-05-02T13:55:55.650Z,24.76
2018-05-02T13:58:23.231Z,24.71
2018-05-02T14:00:50.849Z,24.78
2018-05-02T14:03:18.607Z,24.83
2018-05-02T14:05:46.694Z,24.71
2018-05-02T14:08:14.444Z,24.71
2018-05-02T14:10:41.977Z,24.69
2018-05-02T14:13:10.192Z,24.70
2018-05-02T14:15:37.786Z,24.72
2018-05-02T14:18:05.480Z,24.77
2018-05-02T14:20:33.081Z,24.78
2018-05-02T14:23:00.680Z,24.76
2018-05-02T14:25:28.343Z,24.76
2018-05-02T14:27:55.941Z,24.72
2018-05-02T14:30:23.532Z,24.65
2018-05-02T14:32:51.405Z,24.63
2018-05-02T14:35:19.033Z,24.56
2018-05-02T14:37:47.454Z,24.58
2018-05-02T14:40:15.136Z,24.53
2018-05-02T14:42:42.755Z,24.47
2018-05-02T14:45:10.480Z,24.41
2018-05-02T14:47:38.125Z,24.45
2018-05-02T14:50:05.750Z,24.49
2018-05-02T14:52:33.339Z,24.40
2018-05-02T14:55:01.053Z,24.30
2018-05-02T14:57:28.705Z,24.18
2018-05-02T14:59:56.302Z,24.01
2018-05-02T15:02:24.094Z,23.92
2018-05-02T15:04:51.675Z,23.92
2018-05-02T15:07:19.286Z,23.96
2018-05-02T15:09:46.933Z,23.86
2018-05-02T15:12:15.400Z,23.86
2018-05-02T15:14:43.047Z,23.83
2018-05-02T15:17:10.680Z,23.83
2018-05-02T15:19:38.363Z,23.88
2018-05-02T15:22:06.097Z,23.85
2018-05-02T15:24:33.762Z,23.79
2018-05-02T15:27:01.371Z,23.71
2018-05-02T15:29:29.770Z,23.66
2018-05-02T15:31:57.400Z,23.65
2018-05-02T15:34:25.048Z,23.65
2018-05-02T15:36:52.688Z,23.68
2018-05-02T15:39:20.411Z,23.66
2018-05-02T15:41:48.052Z,23.64
2018-05-02T15:44:15.642Z,23.58
2018-05-02T15:46:43.677Z,23.59
2018-05-02T15:49:11.421Z,23.55
2018-05-02T15:51:39.031Z,23.50
2018-05-02T15:54:06.825Z,23.44
2018-05-02T15:56:34.477Z,23.38
2018-05-02T15:59:02.132Z,23.33
2018-05-02T16:01:29.768Z,23.31
2018-05-02T16:03:57.433Z,23.23
2018-05-02T16:06:24.969Z,23.18
2018-05-02T16:08:52.611Z,23.17
2018-05-02T16:11:20.201Z,23.16
2018-05-02T16:13:47.792Z,23.13
2018-05-02T16:16:15.426Z,23.12
2018-05-02T16:18:43.020Z,23.08
2018-05-02T16:21:10.600Z,23.02
2018-05-02T16:23:38.271Z,22.95
2018-05-02T16:26:05.905Z,22.91
2018-05-02T16:28:33.526Z,22.86
2018-05-02T16:31:01.152Z,22.75
2018-05-02T16:33:28.744Z,22.69
2018-05-02T16:35:56.327Z,22.57
2018-05-02T16:38:24.006Z,22.54
2018-05-02T16:40:52.442Z,22.41
2018-05-02T16:43:20.085Z,22.33
2018-05-02T16:45:47.906Z,22.29
2018-05-02T16:48:15.719Z,22.24
2018-05-02T16:50:43.323Z,22.22
2018-05-02T16:53:11.108Z,22.20
2018-05-02T16:55:38.797Z,22.16
2018-05-02T16:58:06.397Z,22.16
2018-05-02T17:00:34.929Z,22.16
2018-05-02T17:03:02.513Z,22.10
2018-05-02T17:05:30.097Z,22.06
2018-05-02T17:07:57.816Z,22.02
2018-05-02T17:10:25.402Z,21.93
2018-05-02T17:12:52.992Z,21.84
2018-05-02T17:15:20.700Z,21.73
2018-05-02T17:17:49.183Z,21.63
2018-05-02T17:20:16.832Z,21.53
2018-05-02T17:22:44.514Z,21.45
2018-05-02T17:25:12.103Z,21.34
2018-05-02T17:27:39.684Z,21.21
2018-05-02T17:30:07.457Z,21.10
2018-05-02T17:32:35.069Z,20.98
2018-05-02T17:35:02.661Z,20.91
2018-05-02T17:37:30.312Z,20.85
2018-05-02T17:39:57.902Z,20.77
2018-05-02T17:42:25.590Z,20.74
2018-05-02T17:44:53.311Z,20.71
2018-05-02T17:47:20.901Z,20.67
2018-05-02T17:49:48.600Z,20.61
2018-05-02T17:52:16.289Z,20.55
2018-05-02T17:54:43.893Z,20.48
2018-05-02T17:57:11.494Z,20.43
2018-05-02T17:59:39.131Z,20.39
2018-05-02T18:02:06.751Z,20.33
2018-05-02T18:04:34.393Z,20.28
2018-05-02T18:07:02.978Z,20.24
2018-05-02T18:09:30.587Z,20.20
2018-05-02T18:11:58.189Z,20.13
2018-05-02T18:14:25.855Z,20.09
2018-05-02T18:16:53.462Z,20.03
2018-05-02T18:19:21.057Z,20.01
2018-05-02T18:21:48.703Z,19.99
2018-05-02T18:24:16.287Z,19.97
2018-05-02T18:26:43.877Z,19.94
2018-05-02T18:29:11.520Z,19.93
2018-05-02T18:31:39.108Z,19.91
2018-05-02T18:34:06.746Z,19.89
2018-05-02T18:36:34.509Z,19.86
2018-05-02T18:39:02.927Z,19.81
2018-05-02T18:41:30.584Z,19.79
2018-05-02T18:43:58.316Z,19.79
2018-05-02T18:46:25.946Z,19.74
2018-05-02T18:48:53.565Z,19.72
2018-05-02T18:51:22.034Z,19.68
2018-05-02T18:53:49.639Z,19.66
2018-05-02T18:56:17.297Z,19.62
2018-05-02T18:58:44.970Z,19.59
2018-05-02T19:01:12.633Z,19.59
2018-05-02T19:03:40.259Z,19.56
2018-05-02T19:06:07.941Z,19.56
2018-05-02T19:08:35.552Z,19.54
2018-05-02T19:11:03.160Z,19.52
2018-05-02T19:13:30.972Z,19.48
2018-05-02T19:15:58.560Z,19.48
2018-05-02T19:18:31.637Z,19.43
2018-05-02T19:20:59.231Z,19.42
2018-05-02T19:23:26.808Z,19.38
2018-05-02T19:26:00.204Z,19.34
2018-05-02T19:28:27.792Z,19.29
2018-05-02T19:31:01.069Z,19.26
2018-05-02T19:33:34.201Z,19.24
2018-05-02T19:36:01.947Z,19.19
2018-05-02T19:38:29.555Z,19.13
2018-05-02T19:41:02.679Z,19.00
2018-05-02T19:43:35.946Z,18.92
2018-05-02T19:46:03.703Z,18.89
2018-05-02T19:48:31.361Z,18.84
2018-05-02T19:51:04.493Z,18.77
2018-05-02T19:53:32.316Z,18.71
2018-05-02T19:55:59.913Z,18.66
2018-05-02T19:58:27.629Z,18.57
2018-05-02T20:01:00.825Z,18.54
2018-05-02T20:03:28.511Z,18.51
2018-05-02T20:05:56.197Z,18.49
2018-05-02T20:08:29.467Z,18.47
2018-05-02T20:11:02.655Z,18.38
2018-05-02T20:13:36.103Z,18.29
2018-05-02T20:16:03.692Z,18.25
2018-05-02T20:18:31.304Z,18.22
2018-05-02T20:20:58.971Z,18.20
2018-05-02T20:23:26.572Z,18.17
2018-05-02T20:25:54.825Z,18.14
2018-05-02T20:28:22.628Z,18.07
2018-05-02T20:30:50.241Z,18.04
2018-05-02T20:33:17.824Z,18.01
2018-05-02T20:35:45.578Z,18.01
2018-05-02T20:38:13.312Z,18.01
2018-05-02T20:40:40.982Z,17.91
2018-05-02T20:43:08.771Z,17.83
2018-05-02T20:45:36.415Z,17.83
2018-05-02T20:48:04.040Z,17.73
2018-05-02T20:50:31.691Z,17.70
2018-05-02T20:52:59.356Z,17.68
2018-05-02T20:55:27.160Z,17.63
2018-05-02T20:57:54.987Z,17.56
2018-05-02T21:00:22.645Z,17.53
2018-05-02T21:02:50.270Z,17.50
2018-05-02T21:05:18.005Z,17.40
2018-05-02T21:07:45.653Z,17.37
2018-05-02T21:10:13.297Z,17.34
2018-05-02T21:12:41.096Z,17.31
2018-05-02T21:15:08.712Z,17.26
2018-05-02T21:17:36.368Z,17.22
2018-05-02T21:20:04.235Z,17.16
2018-05-02T21:22:31.841Z,17.08
2018-05-02T21:24:59.450Z,17.06
2018-05-02T21:27:27.115Z,17.08
2018-05-02T21:29:54.725Z,17.07
2018-05-02T21:32:22.347Z,17.07
2018-05-02T21:34:50.006Z,17.06
2018-05-02T21:37:17.627Z,17.07
2018-05-02T21:39:45.220Z,17.06
2018-05-02T21:42:12.917Z,17.04
2018-05-02T21:44:40.563Z,17.00
2018-05-02T21:47:08.164Z,16.92
2018-05-02T21:49:35.973Z,16.84
2018-05-02T21:52:03.651Z,16.79
2018-05-02T21:54:31.236Z,16.72
2018-05-02T21:56:59.068Z,16.60
2018-05-02T21:59:26.723Z,16.53
2018-05-02T22:01:54.384Z,16.46
2018-05-02T22:04:22.207Z,16.38
2018-05-02T22:06:49.872Z,16.34
2018-05-02T22:09:17.467Z,16.29
2018-05-02T22:11:45.846Z,16.20
2018-05-02T22:14:13.495Z,16.18
2018-05-02T22:16:41.099Z,16.15
2018-05-02T22:19:08.760Z,16.08
2018-05-02T22:21:36.344Z,16.01
2018-05-02T22:24:04.000Z,15.91
2018-05-02T22:26:31.649Z,15.85
2018-05-02T22:28:59.240Z,15.80
2018-05-02T22:31:26.835Z,15.80
2018-05-02T22:33:54.579Z,15.75
2018-05-02T22:36:22.172Z,15.75
2018-05-02T22:38:49.780Z,15.74
2018-05-02T22:41:17.507Z,15.72
2018-05-02T22:43:45.099Z,15.70
2018-05-02T22:46:12.756Z,15.68
2018-05-02T22:48:40.482Z,15.64
2018-05-02T22:51:08.127Z,15.43
2018-05-02T22:53:35.716Z,15.29
2018-05-02T22:56:03.386Z,15.22
2018-05-02T22:58:31.091Z,15.11
2018-05-02T23:00:58.835Z,15.02
2018-05-02T23:03:26.481Z,14.82
2018-05-02T23:05:54.076Z,14.75
2018-05-02T23:08:21.722Z,14.67
2018-05-02T23:10:49.389Z,14.60
2018-05-02T23:13:17.035Z,14.40
2018-05-02T23:15:44.630Z,14.29
2018-05-02T23:18:12.357Z,14.17
2018-05-02T23:20:40.001Z,14.15
2018-05-02T23:23:07.655Z,14.08
2018-05-02T23:25:35.440Z,14.04
2018-05-02T23:28:03.088Z,14.03
2018-05-02T23:30:31.060Z,14.03
2018-05-02T23:32:58.803Z,13.99
2018-05-02T23:35:26.413Z,13.97
2018-05-02T23:37:54.013Z,13.90
2018-05-02T23:40:21.666Z,13.77
2018-05-02T23:42:49.247Z,13.73
2018-05-02T23:45:16.885Z,13.70
2018-05-02T23:47:44.513Z,13.68
2018-05-02T23:50:12.132Z,13.68
2018-05-02T23:52:40.363Z,13.71
2018-05-02T23:55:08.549Z,13.76
2018-05-02T23:57:36.154Z,13.82
